Flight Number: EUR1196 Duration: 3:00
Departure: Paris Charles-de-Gaulle (LFPG) at 03:00 Distance: 1138 Nm
Arrival: Athens Int'l (LGAV) at 06:00 Equipment: A330-200

Weather Information
Paris-Aeroport Charles De Gaulle, France (LFPG) 49-01N 002-32E 109M Jan 21, 2019 - 07:00 AM EST / 2019.01.21 1200 UTC
Wind: from the NE (050 degrees) at 7 MPH (6 KT) (direction variable):0
Visibility: 4 mile(s):0 Temperature: 33 F (1 C)
Windchill: 26 F (-3 C):1 Dew Point: 26 F (-3 C) Relative Humidity: 74% Pressure (altimeter): 30.21 in. Hg (1023 hPa)
ob: LFPG 211200Z 05006KT 350V090 8000 NSC 01/M03 Q1023 NOSIG cycle: 12
Sunrise: 07:37 Sunset: 16:25 (UTC)

Athens Eleftherios Venizelos International Airport, Greece (LGAV) 37-56N 023-56E Jan 21, 2019 - 06:50 AM EST / 2019.01.21 1150 UTC
Wind: from the NE (050 degrees) at 7 MPH (6 KT):0
Visibility: greater than 7 mile(s):0
Sky conditions: partly cloudy Temperature: 55 F (13 C) Dew Point: 44 F (7 C) Relative Humidity: 66% Pressure (altimeter): 30.00 in. Hg (1016 hPa)
ob: LGAV 211150Z 05006KT 9999 SCT018 13/07 Q1016 NOSIG cycle: 12
Sunrise: 05:39 Sunset: 15:31 (UTC)

TAF:2019/01/21 12:12 TAF TAF LGAV 211100Z 2112/2212 VRB05KT 9999 FEW015 SCT025 PROB30 TEMPO 2112/2212 5000 RA SCT012 BKN020 BECMG 2208/2210 18015KT

Previous Pireps for this route
Date Aircraft Flight time Fuel used Landing rate On time
2016-01-18A330-20003.16650000Yes
2018-04-27A330-20002.5655682-150No
(pireps marked green are flown by you)

Route map